Time;durP1;ratioP1;P1;durP2;ratioP2;P2;SDS_P1;SDS_P2;PMS_P1;PMS_P2;Temp;Humidity;BMP_temperature;BMP_pressure;BME280_temperature;BME280_humidity;BME280_pressure;Samples;Min_cycle;Max_cycle;Signal;HPM_P1;HPM_P2
2022/11/22 00:00:27;;;;;;;0.60;0.60;;;2.10;99.90;;;;;;5001175;28;20041;-81
2022/11/22 00:02:53;;;;;;;0.55;0.55;;;2.10;99.90;;;;;;4983355;28;20406;-80
2022/11/22 00:05:19;;;;;;;0.70;0.70;;;2.20;99.90;;;;;;5000523;28;20493;-81
2022/11/22 00:07:45;;;;;;;0.70;0.70;;;2.10;99.90;;;;;;4998948;28;21019;-80
2022/11/22 00:10:13;;;;;;;0.70;0.70;;;2.10;99.90;;;;;;5016867;28;20889;-80
2022/11/22 00:12:39;;;;;;;0.50;0.50;;;2.20;99.90;;;;;;4992569;28;20448;-80
2022/11/22 00:15:06;;;;;;;0.60;0.60;;;2.00;99.90;;;;;;5010944;28;20064;-82
2022/11/22 00:17:32;;;;;;;0.70;0.70;;;2.00;99.90;;;;;;4993008;28;20081;-80
2022/11/22 00:19:58;;;;;;;0.95;0.95;;;2.10;99.90;;;;;;5007608;28;21557;-81
2022/11/22 00:22:31;;;;;;;0.65;0.65;;;2.00;99.90;;;;;;4991290;28;20227;-80
2022/11/22 00:24:58;;;;;;;0.70;0.70;;;2.20;99.90;;;;;;4989606;28;20045;-81
2022/11/22 00:27:24;;;;;;;0.68;0.68;;;2.10;99.90;;;;;;5005568;28;20041;-80
2022/11/22 00:29:50;;;;;;;0.70;0.70;;;2.00;99.90;;;;;;4988931;28;20041;-81
2022/11/22 00:32:16;;;;;;;0.70;0.70;;;2.00;99.90;;;;;;4989315;28;20103;-83
2022/11/22 00:34:44;;;;;;;0.70;0.70;;;2.00;99.90;;;;;;4991480;28;20038;-83
2022/11/22 00:37:13;;;;;;;0.60;0.60;;;2.00;99.90;;;;;;4988773;28;20053;-82
2022/11/22 00:39:41;;;;;;;1.52;1.50;;;1.90;99.90;;;;;;5006913;28;20846;-81
2022/11/22 00:42:07;;;;;;;0.60;0.60;;;2.00;99.90;;;;;;4973843;28;20559;-83
2022/11/22 00:44:34;;;;;;;0.60;0.60;;;1.90;99.90;;;;;;4987722;28;20049;-82
2022/11/22 00:47:03;;;;;;;0.70;0.70;;;2.70;99.90;;;;;;5010431;28;20041;-81
2022/11/22 00:49:29;;;;;;;0.60;0.60;;;2.00;99.90;;;;;;4989985;28;20083;-81
2022/11/22 00:51:55;;;;;;;0.73;0.73;;;2.00;99.90;;;;;;4992313;28;20367;-80
2022/11/22 00:54:21;;;;;;;0.90;0.90;;;2.00;99.90;;;;;;4994373;28;20091;-81
2022/11/22 00:56:46;;;;;;;0.80;0.80;;;2.00;99.90;;;;;;4993065;28;20042;-83
2022/11/22 00:59:13;;;;;;;0.73;0.73;;;2.00;99.90;;;;;;4992784;28;20038;-82
2022/11/22 01:01:39;;;;;;;0.82;0.82;;;2.00;99.90;;;;;;4990443;28;20041;-82
2022/11/22 01:04:08;;;;;;;0.70;0.70;;;2.00;99.90;;;;;;5004442;28;20052;-81
2022/11/22 01:06:34;;;;;;;0.88;0.88;;;2.00;99.90;;;;;;4994654;28;20045;-81
2022/11/22 01:09:00;;;;;;;0.77;0.77;;;1.90;99.90;;;;;;4992716;28;20703;-83
2022/11/22 01:11:25;;;;;;;0.63;0.63;;;1.90;99.90;;;;;;4993314;28;20120;-81
2022/11/22 01:13:51;;;;;;;0.60;0.60;;;1.90;99.90;;;;;;4994251;28;20793;-83
2022/11/22 01:16:18;;;;;;;0.70;0.70;;;1.90;99.90;;;;;;4998954;28;20057;-81
2022/11/22 01:18:44;;;;;;;0.60;0.60;;;1.90;99.90;;;;;;4994360;28;20924;-83
2022/11/22 01:21:11;;;;;;;0.60;0.60;;;2.00;99.90;;;;;;4992473;28;20095;-82
2022/11/22 01:23:36;;;;;;;;;;;1.90;99.90;;;;;;4993696;28;20119;-82
2022/11/22 01:26:07;;;;;;;0.80;0.80;;;1.90;99.90;;;;;;4994395;28;19929;-82
2022/11/22 01:28:33;;;;;;;0.60;0.60;;;2.00;99.90;;;;;;4997150;28;20399;-82
2022/11/22 01:31:00;;;;;;;0.70;0.70;;;1.90;99.90;;;;;;4993813;28;20034;-82
2022/11/22 01:33:28;;;;;;;0.80;0.80;;;1.90;99.90;;;;;;4990243;28;20046;-81
2022/11/22 01:35:54;;;;;;;0.75;0.75;;;2.00;99.90;;;;;;5006045;28;20840;-81
2022/11/22 01:38:19;;;;;;;0.80;0.80;;;1.90;99.90;;;;;;4993135;28;20045;-81
2022/11/22 01:40:45;;;;;;;2.28;1.23;;;2.00;99.90;;;;;;5010518;28;20056;-83
2022/11/22 01:43:16;;;;;;;0.70;0.70;;;2.20;99.90;;;;;;5007482;28;21236;-82
2022/11/22 01:45:45;;;;;;;0.70;0.70;;;2.00;99.90;;;;;;4992579;28;20068;-82
2022/11/22 01:48:10;;;;;;;0.70;0.70;;;2.00;99.90;;;;;;4979994;28;20061;-82
2022/11/22 01:50:45;;;;;;;0.70;0.70;;;2.00;99.90;;;;;;4993654;28;20179;-83
2022/11/22 01:53:25;;;;;;;0.98;0.98;;;2.00;99.90;;;;;;4993621;28;20049;-82
2022/11/22 01:55:52;;;;;;;0.70;0.70;;;2.10;99.90;;;;;;4976370;28;20376;-82
2022/11/22 01:58:20;;;;;;;0.98;0.95;;;2.00;99.90;;;;;;4995391;28;20088;-83
2022/11/22 02:00:49;;;;;;;0.60;0.60;;;2.10;99.90;;;;;;4997962;28;20652;-82
2022/11/22 02:03:16;;;;;;;0.70;0.70;;;2.00;99.90;;;;;;5007415;28;20048;-81
2022/11/22 02:05:42;;;;;;;0.70;0.70;;;2.00;99.90;;;;;;4991452;28;20061;-83
2022/11/22 02:08:14;;;;;;;0.73;0.73;;;2.10;99.90;;;;;;4992569;28;20046;-82
2022/11/22 02:10:45;;;;;;;0.70;0.70;;;2.10;99.90;;;;;;5007085;28;20034;-82
2022/11/22 02:13:13;;;;;;;0.50;0.50;;;2.60;99.90;;;;;;4967666;28;20049;-83
2022/11/22 02:15:40;;;;;;;0.68;0.68;;;2.10;99.90;;;;;;4984941;28;20186;-82
2022/11/22 02:18:06;;;;;;;0.50;0.50;;;2.10;99.90;;;;;;4986410;28;21087;-81
2022/11/22 02:20:31;;;;;;;0.70;0.70;;;2.10;99.90;;;;;;4986703;28;20037;-81
2022/11/22 02:23:07;;;;;;;0.80;0.80;;;2.20;99.90;;;;;;4994874;28;20085;-80
2022/11/22 02:25:48;;;;;;;0.77;0.77;;;2.10;99.90;;;;;;5006218;28;20049;-81
2022/11/22 02:28:14;;;;;;;0.77;0.77;;;2.10;99.90;;;;;;5013093;28;20061;-82
2022/11/22 02:30:40;;;;;;;0.50;0.50;;;2.20;99.90;;;;;;5012929;28;20562;-83
2022/11/22 02:33:07;;;;;;;0.60;0.60;;;2.20;99.90;;;;;;4980465;28;20046;-83
2022/11/22 02:35:32;;;;;;;;;;;2.20;99.90;;;;;;4993920;28;20102;-81
2022/11/22 02:38:03;;;;;;;0.60;0.60;;;2.20;99.90;;;;;;4995662;28;20341;-81
2022/11/22 02:40:33;;;;;;;0.60;0.60;;;2.20;99.90;;;;;;5000913;28;20472;-82
2022/11/22 02:43:02;;;;;;;0.80;0.80;;;2.20;99.90;;;;;;4996966;28;20049;-84
2022/11/22 02:45:28;;;;;;;1.60;1.50;;;2.20;99.90;;;;;;5012169;28;20045;-82
2022/11/22 02:48:11;;;;;;;0.60;0.60;;;2.30;99.90;;;;;;4999297;28;20361;-81
2022/11/22 02:50:38;;;;;;;0.70;0.70;;;2.20;99.90;;;;;;4983081;28;20125;-83
2022/11/22 02:53:04;;;;;;;1.25;1.15;;;2.20;99.90;;;;;;5016997;28;20045;-81
2022/11/22 02:55:33;;;;;;;0.70;0.70;;;2.30;99.90;;;;;;5015322;28;20126;-83
2022/11/22 02:58:00;;;;;;;;;;;2.20;99.90;;;;;;5016051;28;20050;-83
2022/11/22 03:00:26;;;;;;;0.95;0.95;;;2.20;99.90;;;;;;5001315;28;19984;-84
2022/11/22 03:02:52;;;;;;;;;;;2.30;99.90;;;;;;4981999;28;20053;-81
2022/11/22 03:05:18;;;;;;;0.70;0.70;;;2.30;99.90;;;;;;4980688;28;19979;-82
2022/11/22 03:07:45;;;;;;;0.70;0.70;;;2.30;99.90;;;;;;4998122;28;20132;-80
2022/11/22 03:10:11;;;;;;;0.70;0.70;;;2.30;99.90;;;;;;5002367;28;20041;-82
2022/11/22 03:12:36;;;;;;;0.52;0.52;;;2.70;99.90;;;;;;4987245;28;20045;-82
2022/11/22 03:15:05;;;;;;;0.60;0.60;;;2.30;99.90;;;;;;5009393;28;20055;-81
2022/11/22 03:17:31;;;;;;;1.15;1.15;;;2.30;99.90;;;;;;4998699;28;20081;-81
2022/11/22 03:20:00;;;;;;;0.63;0.63;;;2.30;99.90;;;;;;4997108;28;20053;-81
2022/11/22 03:22:25;;;;;;;1.10;0.95;;;2.40;99.90;;;;;;5006600;28;20135;-82
2022/11/22 03:24:51;;;;;;;0.65;0.65;;;2.40;99.90;;;;;;4998060;28;20045;-83
2022/11/22 03:27:18;;;;;;;0.80;0.80;;;3.20;99.90;;;;;;4999763;28;20049;-81
2022/11/22 03:29:49;;;;;;;0.70;0.70;;;2.40;99.90;;;;;;5001169;28;20101;-82
2022/11/22 03:32:15;;;;;;;0.60;0.60;;;2.40;99.90;;;;;;5015150;28;20566;-83
2022/11/22 03:34:41;;;;;;;0.60;0.60;;;2.40;99.90;;;;;;4981236;28;21403;-83
2022/11/22 03:37:08;;;;;;;0.75;0.75;;;2.40;99.90;;;;;;5013477;28;20119;-83
2022/11/22 03:39:36;;;;;;;1.45;1.45;;;2.40;99.90;;;;;;4999714;28;20094;-82
2022/11/22 03:42:02;;;;;;;0.60;0.60;;;2.40;99.90;;;;;;5001007;28;20499;-82
2022/11/22 03:44:28;;;;;;;0.80;0.80;;;2.40;99.90;;;;;;5012169;28;20068;-80
2022/11/22 03:46:54;;;;;;;0.60;0.60;;;2.40;99.90;;;;;;4983627;28;20903;-82
2022/11/22 03:49:20;;;;;;;0.80;0.80;;;2.50;99.90;;;;;;4996097;28;20490;-83
2022/11/22 03:51:45;;;;;;;0.70;0.70;;;2.40;99.90;;;;;;4964880;28;20046;-83
2022/11/22 03:54:11;;;;;;;0.65;0.65;;;2.40;99.90;;;;;;4997754;28;20400;-83
2022/11/22 03:56:43;;;;;;;1.75;1.65;;;2.50;99.90;;;;;;4999612;28;20119;-82
2022/11/22 03:59:08;;;;;;;0.60;0.60;;;2.50;99.90;;;;;;4996567;28;20053;-83
2022/11/22 04:01:34;;;;;;;0.73;0.73;;;2.50;99.90;;;;;;4974687;28;20052;-81
2022/11/22 04:04:00;;;;;;;0.70;0.70;;;2.50;99.90;;;;;;4978294;28;20045;-84
2022/11/22 04:06:26;;;;;;;0.60;0.60;;;3.00;99.90;;;;;;4995637;28;20049;-81
2022/11/22 04:08:52;;;;;;;0.70;0.70;;;2.50;99.90;;;;;;4993099;28;20045;-82
2022/11/22 04:11:18;;;;;;;0.80;0.80;;;2.50;99.90;;;;;;5010900;28;20046;-84
2022/11/22 04:16:28;;;;;;;0.70;0.70;;;2.60;99.90;;;;;;4998132;28;21421;-82
2022/11/22 04:18:55;;;;;;;0.70;0.70;;;2.60;99.90;;;;;;4994521;28;20049;-81
2022/11/22 04:21:35;;;;;;;0.50;0.50;;;2.60;99.90;;;;;;4962936;28;20052;-84
2022/11/22 04:26:52;;;;;;;0.60;0.60;;;2.60;99.90;;;;;;5015522;28;20426;-83
2022/11/22 04:29:20;;;;;;;0.70;0.70;;;2.70;99.90;;;;;;4991487;28;20056;-83
2022/11/22 04:34:31;;;;;;;0.63;0.63;;;2.70;99.90;;;;;;5009460;28;20075;-84
2022/11/22 04:36:57;;;;;;;0.65;0.65;;;3.20;99.90;;;;;;4996367;28;20055;-84
2022/11/22 04:39:23;;;;;;;1.52;1.42;;;2.80;99.90;;;;;;4995300;28;20098;-83
2022/11/22 04:44:39;;;;;;;6.03;1.45;;;2.80;99.90;;;;;;4993858;28;20124;-84
2022/11/22 04:44:40;;;;;;;0.73;0.73;;;2.80;99.90;;;;;;4981474;28;21886;-83
2022/11/22 04:47:11;;;;;;;0.70;0.70;;;2.80;99.90;;;;;;4981530;28;20046;-82
2022/11/22 04:49:37;;;;;;;0.60;0.60;;;2.80;99.90;;;;;;4993842;28;20095;-81
2022/11/22 04:54:49;;;;;;;0.63;0.63;;;2.80;99.90;;;;;;5009904;28;20127;-81
2022/11/22 04:57:15;;;;;;;0.63;0.63;;;2.80;99.90;;;;;;4992502;28;20059;-83
2022/11/22 04:59:40;;;;;;;0.60;0.60;;;2.90;99.90;;;;;;4977003;28;20041;-81
2022/11/22 05:02:06;;;;;;;0.70;0.70;;;2.90;99.90;;;;;;5008773;28;20139;-83
2022/11/22 05:04:33;;;;;;;0.65;0.65;;;2.90;99.90;;;;;;4994759;28;20115;-81
2022/11/22 05:06:59;;;;;;;0.50;0.50;;;2.90;99.90;;;;;;4995627;28;20045;-80
2022/11/22 05:09:26;;;;;;;0.60;0.60;;;2.90;99.90;;;;;;4994397;28;20044;-83
2022/11/22 05:11:52;;;;;;;0.60;0.60;;;2.90;99.90;;;;;;4994044;28;20347;-83
2022/11/22 05:14:18;;;;;;;0.70;0.70;;;3.10;99.90;;;;;;4976468;28;20112;-83
2022/11/22 05:16:46;;;;;;;2.05;1.70;;;3.00;99.90;;;;;;4976671;28;20051;-82
2022/11/22 05:19:12;;;;;;;0.73;0.73;;;3.00;99.90;;;;;;4994449;28;20038;-82
2022/11/22 05:21:38;;;;;;;0.70;0.70;;;3.80;99.90;;;;;;4996110;28;20067;-83
2022/11/22 05:24:04;;;;;;;0.80;0.80;;;3.00;99.90;;;;;;4980016;28;20045;-81
2022/11/22 05:26:32;;;;;;;0.80;0.80;;;3.10;99.90;;;;;;4976013;28;20037;-82
2022/11/22 05:29:03;;;;;;;0.60;0.60;;;3.00;99.90;;;;;;4992851;28;20156;-82
2022/11/22 05:31:33;;;;;;;0.55;0.55;;;3.00;99.90;;;;;;5008917;28;20037;-82
2022/11/22 05:34:00;;;;;;;1.42;1.42;;;3.10;99.90;;;;;;4993094;28;20048;-81
2022/11/22 05:36:30;;;;;;;0.60;0.60;;;3.10;99.90;;;;;;4992484;28;20049;-83
2022/11/22 05:38:56;;;;;;;0.68;0.68;;;3.10;99.90;;;;;;4993608;28;20037;-82
2022/11/22 05:41:23;;;;;;;0.60;0.60;;;3.10;99.90;;;;;;4995008;28;20060;-83
2022/11/22 05:43:52;;;;;;;0.50;0.50;;;3.10;99.90;;;;;;4992837;28;20069;-82
2022/11/22 05:46:28;;;;;;;0.50;0.50;;;3.10;99.90;;;;;;5011861;28;20049;-81
2022/11/22 05:48:56;;;;;;;1.02;0.63;;;3.50;99.90;;;;;;5000652;28;20033;-81
2022/11/22 05:51:24;;;;;;;0.63;0.63;;;3.20;99.90;;;;;;4998965;28;20539;-82
2022/11/22 05:53:50;;;;;;;0.70;0.70;;;3.20;99.90;;;;;;4998950;28;20136;-81
2022/11/22 05:56:22;;;;;;;4.57;1.55;;;3.20;99.90;;;;;;4981169;28;20049;-82
2022/11/22 05:58:48;;;;;;;0.60;0.60;;;3.20;99.90;;;;;;4999588;28;20049;-81
2022/11/22 06:01:18;;;;;;;;;;;3.20;99.90;;;;;;4999841;28;20034;-79
2022/11/22 06:03:45;;;;;;;0.60;0.60;;;3.30;99.90;;;;;;5014914;28;20548;-80
2022/11/22 06:06:11;;;;;;;0.60;0.60;;;3.30;99.90;;;;;;4978603;28;20069;-80
2022/11/22 06:08:39;;;;;;;0.75;0.75;;;3.30;99.90;;;;;;4995492;28;20046;-81
2022/11/22 06:11:08;;;;;;;0.60;0.60;;;3.30;99.90;;;;;;4992843;28;20049;-80
2022/11/22 06:13:38;;;;;;;0.50;0.50;;;3.30;99.90;;;;;;4995717;28;20053;-80
2022/11/22 06:16:05;;;;;;;0.60;0.60;;;3.30;99.90;;;;;;4992509;28;20413;-82
2022/11/22 06:18:32;;;;;;;0.98;0.98;;;3.30;99.90;;;;;;4991990;28;20045;-81
2022/11/22 06:20:59;;;;;;;0.70;0.70;;;3.30;99.90;;;;;;4994143;28;20168;-80
2022/11/22 06:23:25;;;;;;;1.13;1.13;;;3.30;99.90;;;;;;4992868;28;20042;-82
2022/11/22 06:26:00;;;;;;;0.60;0.60;;;3.40;99.90;;;;;;4978879;28;20041;-81
2022/11/22 06:28:27;;;;;;;0.70;0.70;;;3.40;99.90;;;;;;4993660;28;20042;-82
2022/11/22 06:30:53;;;;;;;0.60;0.60;;;3.40;99.90;;;;;;4995676;28;20064;-81
2022/11/22 06:33:20;;;;;;;0.70;0.70;;;3.40;99.90;;;;;;4994159;28;20808;-81
2022/11/22 06:35:45;;;;;;;;;;;3.40;99.90;;;;;;4995414;28;20721;-81
2022/11/22 06:38:11;;;;;;;0.70;0.70;;;3.40;99.90;;;;;;4996713;28;19921;-81
2022/11/22 06:40:36;;;;;;;0.70;0.70;;;3.40;99.90;;;;;;4981746;28;21833;-82
2022/11/22 06:43:04;;;;;;;0.70;0.70;;;3.80;99.90;;;;;;4994434;28;20038;-82
2022/11/22 06:45:30;;;;;;;0.75;0.75;;;3.40;99.90;;;;;;4996103;28;20042;-83
2022/11/22 06:47:57;;;;;;;0.73;0.73;;;3.40;99.90;;;;;;4996304;28;20048;-83
2022/11/22 06:50:23;;;;;;;0.70;0.70;;;3.40;99.90;;;;;;4979077;28;20124;-83
2022/11/22 06:52:53;;;;;;;0.60;0.60;;;3.40;99.90;;;;;;5000503;28;20041;-80
2022/11/22 06:55:19;;;;;;;0.70;0.70;;;3.40;99.90;;;;;;4997853;28;20052;-82
2022/11/22 06:57:50;;;;;;;0.50;0.50;;;3.40;99.90;;;;;;4997151;28;20057;-83
2022/11/22 07:00:18;;;;;;;1.45;1.35;;;3.50;99.90;;;;;;4998598;28;20068;-81
2022/11/22 07:02:44;;;;;;;0.80;0.80;;;3.50;99.90;;;;;;5016120;28;20149;-83
2022/11/22 07:05:10;;;;;;;0.63;0.63;;;3.50;99.90;;;;;;4990375;28;20406;-81
2022/11/22 07:07:36;;;;;;;0.70;0.70;;;3.60;99.90;;;;;;5005355;28;20042;-82
2022/11/22 07:10:03;;;;;;;0.60;0.60;;;4.10;99.90;;;;;;5005568;28;20041;-82
2022/11/22 07:12:29;;;;;;;0.65;0.65;;;3.60;99.90;;;;;;5024120;28;20045;-83
2022/11/22 07:14:54;;;;;;;0.60;0.60;;;4.10;99.90;;;;;;5003467;28;20053;-83
2022/11/22 07:17:20;;;;;;;0.70;0.70;;;3.70;99.90;;;;;;4990806;28;20041;-81
2022/11/22 07:19:46;;;;;;;0.70;0.70;;;3.60;99.90;;;;;;5002348;28;20123;-82
2022/11/22 07:22:11;;;;;;;0.70;0.70;;;3.70;99.90;;;;;;5001778;28;20104;-82
2022/11/22 07:24:37;;;;;;;0.73;0.73;;;3.80;99.90;;;;;;5000037;28;20577;-83
2022/11/22 07:27:03;;;;;;;0.50;0.50;;;3.70;99.90;;;;;;4998648;28;20041;-82
2022/11/22 07:29:28;;;;;;;0.80;0.80;;;3.70;99.90;;;;;;4989344;28;20124;-83
2022/11/22 07:32:00;;;;;;;0.70;0.70;;;3.70;99.90;;;;;;4994700;28;20048;-82
2022/11/22 07:34:25;;;;;;;0.50;0.50;;;3.80;99.90;;;;;;5004004;28;20037;-82
2022/11/22 07:36:51;;;;;;;1.80;1.73;;;3.80;99.90;;;;;;4970516;28;20049;-81
2022/11/22 07:39:17;;;;;;;0.73;0.73;;;3.90;99.90;;;;;;5004686;28;20127;-82
2022/11/22 07:41:45;;;;;;;0.68;0.68;;;3.90;99.90;;;;;;4998139;28;20029;-82
2022/11/22 07:44:10;;;;;;;1.02;1.02;;;3.90;99.90;;;;;;4998538;28;20049;-81
2022/11/22 07:46:36;;;;;;;0.60;0.60;;;4.00;99.90;;;;;;4985979;28;20044;-82
2022/11/22 07:49:02;;;;;;;0.50;0.50;;;4.00;99.90;;;;;;4999914;28;20045;-83
2022/11/22 07:51:28;;;;;;;1.65;0.95;;;4.00;99.90;;;;;;4967989;28;20101;-81
2022/11/22 07:53:55;;;;;;;0.65;0.65;;;4.10;99.90;;;;;;4983638;28;20122;-81
2022/11/22 07:56:21;;;;;;;0.65;0.65;;;4.10;99.90;;;;;;5001063;28;20084;-84
2022/11/22 07:58:47;;;;;;;0.60;0.60;;;4.10;99.90;;;;;;4983678;28;20057;-82
2022/11/22 08:01:16;;;;;;;0.75;0.75;;;4.20;99.90;;;;;;5017718;28;20077;-82
2022/11/22 08:03:42;;;;;;;2.20;1.10;;;4.20;99.90;;;;;;5002218;28;20045;-81
2022/11/22 08:06:10;;;;;;;0.60;0.60;;;4.20;99.90;;;;;;4983639;28;20057;-82
2022/11/22 08:08:37;;;;;;;0.70;0.70;;;4.30;99.90;;;;;;4997318;28;20045;-81
2022/11/22 08:11:03;;;;;;;1.10;1.10;;;4.30;99.90;;;;;;4997770;28;20387;-82
2022/11/22 08:13:30;;;;;;;0.50;0.50;;;4.40;99.90;;;;;;4998122;28;20547;-82
2022/11/22 08:16:09;;;;;;;1.33;1.25;;;4.40;99.90;;;;;;5015574;28;20231;-81
2022/11/22 08:18:36;;;;;;;0.50;0.50;;;4.50;99.90;;;;;;4997987;28;20046;-82
2022/11/22 08:21:14;;;;;;;0.90;0.90;;;4.50;99.90;;;;;;4992641;28;20184;-81
2022/11/22 08:23:40;;;;;;;0.70;0.70;;;4.60;99.90;;;;;;5002111;28;20318;-82
2022/11/22 08:26:08;;;;;;;0.60;0.60;;;4.60;99.90;;;;;;4998345;28;20106;-81
2022/11/22 08:28:38;;;;;;;0.57;0.57;;;5.40;99.90;;;;;;5003347;28;20037;-80
2022/11/22 08:31:11;;;;;;;0.90;0.90;;;4.80;99.90;;;;;;4989148;28;20467;-82
2022/11/22 08:33:37;;;;;;;0.60;0.60;;;4.80;99.90;;;;;;5025985;28;20045;-80
2022/11/22 08:36:03;;;;;;;0.52;0.52;;;4.90;99.90;;;;;;5004862;28;20434;-80
2022/11/22 08:38:29;;;;;;;0.65;0.65;;;4.90;99.90;;;;;;5001067;28;20410;-82
2022/11/22 08:40:57;;;;;;;0.63;0.63;;;4.90;99.90;;;;;;5002592;28;20045;-82
2022/11/22 08:43:23;;;;;;;2.03;1.92;;;5.00;99.90;;;;;;5001768;28;20470;-84
2022/11/22 08:45:56;;;;;;;0.50;0.50;;;5.10;99.90;;;;;;5015140;28;20430;-82
2022/11/22 08:48:26;;;;;;;0.63;0.60;;;5.10;99.90;;;;;;4989302;28;20041;-81
2022/11/22 08:50:59;;;;;;;0.50;0.50;;;5.20;99.90;;;;;;4992415;28;20175;-82
2022/11/22 08:53:25;;;;;;;0.50;0.50;;;5.50;99.90;;;;;;5026102;28;20045;-82
2022/11/22 08:55:54;;;;;;;4.68;2.58;;;5.30;99.90;;;;;;5024956;28;20045;-81
2022/11/22 08:58:21;;;;;;;0.68;0.68;;;5.20;99.90;;;;;;5025252;28;20049;-81
2022/11/22 09:00:47;;;;;;;1.80;1.70;;;5.30;99.90;;;;;;5024798;28;20050;-80
2022/11/22 09:03:12;;;;;;;0.60;0.60;;;5.30;99.90;;;;;;5007564;28;20046;-81
2022/11/22 09:05:38;;;;;;;0.60;0.60;;;5.40;99.90;;;;;;5002340;28;20077;-80
2022/11/22 09:08:04;;;;;;;0.60;0.60;;;5.50;99.90;;;;;;5005951;28;20612;-81
2022/11/22 09:10:30;;;;;;;0.63;0.63;;;5.50;99.90;;;;;;5004250;28;20442;-81
2022/11/22 09:12:55;;;;;;;0.60;0.60;;;5.50;99.90;;;;;;4988805;28;20050;-81
2022/11/22 09:15:24;;;;;;;0.98;0.98;;;5.60;99.90;;;;;;5004157;28;20092;-81
2022/11/22 09:17:50;;;;;;;;;;;5.60;99.90;;;;;;4985158;28;20484;-80
2022/11/22 09:20:16;;;;;;;3.20;2.97;;;5.60;99.90;;;;;;5002417;28;19925;-80
2022/11/22 09:22:42;;;;;;;;;;;5.60;99.90;;;;;;5003586;28;20046;-79
2022/11/22 09:25:08;;;;;;;1.92;1.80;;;5.60;99.90;;;;;;5002091;28;19949;-80
2022/11/22 09:27:40;;;;;;;0.60;0.60;;;5.60;99.90;;;;;;5002837;28;20096;-79
2022/11/22 09:30:06;;;;;;;0.57;0.57;;;5.60;99.90;;;;;;5013382;28;20052;-80
2022/11/22 09:32:32;;;;;;;0.70;0.70;;;5.70;99.90;;;;;;5002471;28;20508;-83
2022/11/22 09:34:57;;;;;;;0.52;0.52;;;5.70;99.90;;;;;;5001416;28;20061;-83
2022/11/22 09:37:24;;;;;;;;;;;5.60;99.90;;;;;;4988346;28;20045;-82
2022/11/22 09:39:50;;;;;;;0.40;0.40;;;5.70;99.90;;;;;;4988059;28;19921;-83
2022/11/22 09:42:34;;;;;;;;;;;5.70;99.90;;;;;;5004084;28;20491;-81
2022/11/22 09:45:24;;;;;;;0.60;0.60;;;5.70;99.90;;;;;;4986715;28;19921;-82
2022/11/22 09:48:22;;;;;;;0.55;0.55;;;5.60;99.90;;;;;;5003875;28;20050;-82
2022/11/22 09:50:53;;;;;;;0.60;0.60;;;5.60;99.90;;;;;;5002795;28;20341;-82
2022/11/22 09:53:33;;;;;;;0.60;0.60;;;6.20;99.90;;;;;;5003368;28;20165;-83
2022/11/22 09:56:08;;;;;;;0.50;0.50;;;5.60;99.90;;;;;;4998568;28;20622;-82
2022/11/22 09:58:50;;;;;;;0.70;0.70;;;5.60;99.90;;;;;;4999378;28;20073;-83
2022/11/22 10:01:39;;;;;;;0.60;0.60;;;5.60;99.90;;;;;;4997442;28;20491;-81
2022/11/22 10:04:22;;;;;;;0.60;0.60;;;5.60;99.90;;;;;;4997459;28;20104;-82
2022/11/22 10:07:18;;;;;;;1.02;0.93;;;5.60;99.90;;;;;;5020239;28;20132;-84
2022/11/22 10:10:10;;;;;;;0.63;0.63;;;6.10;99.90;;;;;;5001532;28;20450;-82
2022/11/22 10:12:57;;;;;;;0.60;0.60;;;5.80;99.90;;;;;;4989314;28;20052;-83
2022/11/22 10:15:34;;;;;;;0.60;0.60;;;5.80;99.90;;;;;;5029312;28;20041;-83
2022/11/22 10:18:04;;;;;;;0.60;0.60;;;5.90;99.90;;;;;;5008320;28;20069;-82
2022/11/22 10:20:40;;;;;;;0.70;0.70;;;5.90;99.90;;;;;;5016884;28;20515;-83
2022/11/22 10:23:34;;;;;;;0.60;0.60;;;5.90;99.90;;;;;;5012635;28;20468;-82
2022/11/22 10:26:13;;;;;;;0.50;0.50;;;5.90;99.90;;;;;;5022666;28;20060;-84
2022/11/22 10:29:05;;;;;;;0.80;0.80;;;6.00;99.90;;;;;;5014624;28;20395;-83
2022/11/22 10:31:49;;;;;;;0.57;0.57;;;6.00;99.90;;;;;;5018684;28;20083;-83
2022/11/22 10:34:49;;;;;;;0.60;0.60;;;6.10;99.90;;;;;;5020142;28;20077;-82
2022/11/22 10:37:42;;;;;;;0.60;0.60;;;6.10;99.90;;;;;;5025879;28;20424;-83
2022/11/22 10:40:29;;;;;;;0.60;0.60;;;6.20;99.90;;;;;;5032090;28;20099;-82
2022/11/22 10:43:01;;;;;;;0.63;0.63;;;6.20;99.90;;;;;;5010813;28;20740;-81
2022/11/22 10:45:42;;;;;;;0.55;0.55;;;6.20;99.90;;;;;;5012365;28;20403;-83
2022/11/22 10:48:26;;;;;;;0.40;0.40;;;6.20;99.90;;;;;;5005564;28;21891;-83
2022/11/22 10:51:26;;;;;;;0.60;0.60;;;6.20;99.90;;;;;;5006599;28;20557;-82
2022/11/22 10:54:12;;;;;;;1.30;1.02;;;6.30;99.90;;;;;;5008097;28;20073;-82
2022/11/22 10:57:20;;;;;;;0.70;0.70;;;6.40;99.90;;;;;;4995637;28;20088;-82
2022/11/22 11:00:10;;;;;;;0.60;0.60;;;6.70;99.90;;;;;;4984337;28;20084;-82
2022/11/22 11:02:52;;;;;;;0.50;0.50;;;6.80;99.90;;;;;;4999859;28;20041;-82
2022/11/22 11:05:22;;;;;;;0.55;0.55;;;7.00;99.90;;;;;;4995770;28;22386;-82
2022/11/22 11:07:51;;;;;;;0.75;0.75;;;6.90;99.90;;;;;;4998254;28;20051;-83
2022/11/22 11:10:20;;;;;;;1.08;1.08;;;6.80;99.90;;;;;;4992218;28;20052;-82
2022/11/22 11:12:55;;;;;;;0.80;0.80;;;6.80;99.90;;;;;;5008411;28;20124;-81
2022/11/22 11:15:33;;;;;;;0.47;0.47;;;6.80;99.90;;;;;;5009399;28;20045;-82
2022/11/22 11:18:09;;;;;;;0.60;0.60;;;6.90;99.90;;;;;;5024717;28;20580;-82
2022/11/22 11:20:40;;;;;;;0.50;0.50;;;6.90;99.90;;;;;;5001880;28;20053;-81
2022/11/22 11:23:08;;;;;;;13.38;5.20;;;6.90;99.90;;;;;;5008372;28;20072;-82
2022/11/22 11:25:39;;;;;;;0.50;0.50;;;6.90;99.90;;;;;;4999960;28;20041;-82
2022/11/22 11:28:08;;;;;;;0.60;0.60;;;6.90;99.90;;;;;;5010902;28;20113;-82
2022/11/22 11:31:08;;;;;;;0.40;0.40;;;7.00;99.90;;;;;;5009253;28;20037;-81
2022/11/22 11:33:37;;;;;;;0.60;0.60;;;7.00;99.90;;;;;;4991041;28;20148;-82
2022/11/22 11:36:07;;;;;;;0.50;0.50;;;6.90;99.90;;;;;;5026550;28;20428;-81
2022/11/22 11:38:52;;;;;;;0.85;0.85;;;6.90;99.90;;;;;;5009651;28;20041;-82
2022/11/22 11:41:25;;;;;;;0.60;0.60;;;7.10;99.90;;;;;;5023627;28;20068;-82
2022/11/22 11:43:56;;;;;;;0.60;0.60;;;7.00;99.90;;;;;;4998997;28;20050;-82
2022/11/22 11:46:24;;;;;;;0.60;0.60;;;7.10;99.90;;;;;;4997118;28;21077;-81
2022/11/22 11:48:55;;;;;;;0.50;0.50;;;7.10;99.90;;;;;;5014506;28;20068;-81
2022/11/22 11:51:34;;;;;;;0.50;0.50;;;7.00;99.90;;;;;;5008003;28;20056;-82
2022/11/22 11:54:15;;;;;;;0.68;0.68;;;7.00;99.90;;;;;;4997921;28;20059;-81
2022/11/22 11:56:55;;;;;;;0.50;0.50;;;7.10;99.90;;;;;;4993503;28;20049;-82
2022/11/22 11:59:23;;;;;;;0.45;0.45;;;7.00;99.90;;;;;;4991449;28;20048;-82
2022/11/22 12:01:54;;;;;;;0.55;0.55;;;7.20;99.90;;;;;;4988282;28;20132;-81
2022/11/22 12:04:27;;;;;;;0.68;0.68;;;7.20;99.90;;;;;;4995439;28;20148;-82
2022/11/22 12:06:56;;;;;;;0.50;0.50;;;7.20;99.90;;;;;;5008443;28;20065;-81
2022/11/22 12:09:42;;;;;;;0.50;0.50;;;7.30;99.90;;;;;;4993073;28;20072;-81
2022/11/22 12:12:23;;;;;;;0.50;0.50;;;7.40;99.90;;;;;;5011139;28;20321;-82
2022/11/22 12:15:00;;;;;;;0.55;0.55;;;7.40;99.90;;;;;;4976501;28;20046;-81
2022/11/22 12:17:30;;;;;;;0.52;0.52;;;7.40;99.90;;;;;;4996034;28;20045;-81
2022/11/22 12:20:03;;;;;;;0.50;0.50;;;7.30;99.90;;;;;;5013134;28;20403;-82
2022/11/22 12:22:44;;;;;;;0.60;0.60;;;7.40;99.90;;;;;;4970813;28;20049;-81
2022/11/22 12:25:25;;;;;;;0.40;0.40;;;7.40;99.90;;;;;;4997402;28;20196;-81
2022/11/22 12:27:50;;;;;;;1.88;1.77;;;7.50;99.90;;;;;;5000609;28;20080;-81
2022/11/22 12:30:19;;;;;;;0.60;0.60;;;8.10;99.90;;;;;;4979762;28;20128;-82
2022/11/22 12:33:05;;;;;;;0.40;0.40;;;7.40;99.90;;;;;;4976033;28;20049;-82
2022/11/22 12:35:42;;;;;;;0.50;0.50;;;7.40;99.90;;;;;;5018550;28;20045;-82
2022/11/22 12:38:15;;;;;;;0.50;0.50;;;7.40;99.90;;;;;;4999901;28;20045;-82
2022/11/22 12:40:42;;;;;;;0.52;0.52;;;7.40;99.90;;;;;;4999976;28;20102;-81
2022/11/22 12:43:26;;;;;;;0.70;0.70;;;7.40;99.90;;;;;;5019018;28;20049;-82
2022/11/22 12:45:59;;;;;;;0.80;0.80;;;7.40;99.90;;;;;;5024121;28;20153;-82
2022/11/22 12:48:33;;;;;;;0.50;0.50;;;7.30;99.90;;;;;;5023960;28;20447;-82
2022/11/22 12:51:46;;;;;;;0.60;0.60;;;7.30;99.90;;;;;;4997267;28;20037;-81
2022/11/22 12:54:30;;;;;;;0.50;0.50;;;7.30;99.90;;;;;;4983174;28;22029;-81
2022/11/22 12:57:12;;;;;;;0.60;0.60;;;7.40;99.90;;;;;;4997605;28;20041;-81
2022/11/22 12:59:49;;;;;;;0.60;0.60;;;7.40;99.90;;;;;;5016979;28;20045;-81
2022/11/22 13:02:43;;;;;;;0.50;0.50;;;7.30;99.90;;;;;;5002210;28;20049;-80
2022/11/22 13:05:25;;;;;;;0.52;0.52;;;7.30;99.90;;;;;;5001328;28;20091;-81
2022/11/22 13:08:17;;;;;;;0.52;0.52;;;7.30;99.90;;;;;;4989691;28;20092;-83
2022/11/22 13:10:46;;;;;;;0.65;0.65;;;7.30;99.90;;;;;;4986748;28;20041;-81
2022/11/22 13:13:41;;;;;;;0.60;0.60;;;7.20;99.90;;;;;;4984128;28;20072;-81
2022/11/22 13:16:09;;;;;;;0.70;0.70;;;7.20;99.90;;;;;;5005982;28;20736;-82
2022/11/22 13:18:39;;;;;;;1.88;1.77;;;7.20;99.90;;;;;;5003765;28;20041;-82
2022/11/22 13:21:15;;;;;;;0.82;0.82;;;7.20;99.90;;;;;;4990699;28;20076;-81
2022/11/22 13:23:56;;;;;;;0.50;0.50;;;7.20;99.90;;;;;;4972732;28;20065;-81
2022/11/22 13:27:04;;;;;;;0.60;0.60;;;7.20;99.90;;;;;;5015442;28;20041;-80
2022/11/22 13:29:33;;;;;;;0.60;0.60;;;7.20;99.90;;;;;;4994000;28;20044;-80